sensor_id;sensor_type;location;lat;lon;timestamp;pressure;altitude;pressure_sealevel;temperature;humidity
19672;BME280;9983;51.114;13.788;2023-04-07T00:01:36;99627.75;;;2.61;74.33
19672;BME280;9983;51.114;13.788;2023-04-07T00:06:37;99623.31;;;2.40;74.49
19672;BME280;9983;51.114;13.788;2023-04-07T00:11:37;99615.47;;;2.16;75.95
19672;BME280;9983;51.114;13.788;2023-04-07T00:16:37;99619.66;;;2.18;75.64
19672;BME280;9983;51.114;13.788;2023-04-07T00:21:37;99617.47;;;2.01;76.42
19672;BME280;9983;51.114;13.788;2023-04-07T00:26:38;99615.69;;;1.56;79.39
19672;BME280;9983;51.114;13.788;2023-04-07T00:31:38;99615.00;;;1.65;80.17
19672;BME280;9983;51.114;13.788;2023-04-07T00:36:38;99617.47;;;2.01;78.93
19672;BME280;9983;51.114;13.788;2023-04-07T00:41:38;99601.53;;;2.14;76.15
19672;BME280;9983;51.114;13.788;2023-04-07T00:46:40;99609.94;;;1.62;79.62
19672;BME280;9983;51.114;13.788;2023-04-07T00:51:40;99607.75;;;1.56;79.98
19672;BME280;9983;51.114;13.788;2023-04-07T00:56:40;99596.97;;;1.70;79.41
19672;BME280;9983;51.114;13.788;2023-04-07T01:02:13;99595.28;;;1.69;79.08
19672;BME280;9983;51.114;13.788;2023-04-07T01:07:23;99588.94;;;1.36;80.69
19672;BME280;9983;51.114;13.788;2023-04-07T01:13:02;99583.91;;;1.33;82.64
19672;BME280;9983;51.114;13.788;2023-04-07T01:18:12;99582.50;;;1.51;80.95
19672;BME280;9983;51.114;13.788;2023-04-07T01:23:21;99580.22;;;1.82;79.37
19672;BME280;9983;51.114;13.788;2023-04-07T01:28:40;99566.75;;;1.96;77.56
19672;BME280;9983;51.114;13.788;2023-04-07T01:33:45;99566.41;;;1.89;78.33
19672;BME280;9983;51.114;13.788;2023-04-07T01:38:45;99553.06;;;1.91;78.88
19672;BME280;9983;51.114;13.788;2023-04-07T01:43:47;99555.19;;;1.86;79.69
19672;BME280;9983;51.114;13.788;2023-04-07T01:48:48;99557.22;;;1.71;82.12
19672;BME280;9983;51.114;13.788;2023-04-07T01:53:51;99553.69;;;1.60;81.01
19672;BME280;9983;51.114;13.788;2023-04-07T01:58:51;99549.34;;;1.47;81.51
19672;BME280;9983;51.114;13.788;2023-04-07T02:04:01;99547.38;;;1.84;78.57
19672;BME280;9983;51.114;13.788;2023-04-07T02:09:06;99553.69;;;1.60;81.05
19672;BME280;9983;51.114;13.788;2023-04-07T02:14:07;99548.22;;;1.85;78.36
19672;BME280;9983;51.114;13.788;2023-04-07T02:19:08;99546.03;;;1.68;80.32
19672;BME280;9983;51.114;13.788;2023-04-07T02:24:10;99552.75;;;1.49;82.16
19672;BME280;9983;51.114;13.788;2023-04-07T02:29:10;99554.44;;;1.50;81.23
19672;BME280;9983;51.114;13.788;2023-04-07T02:34:11;99533.28;;;1.62;82.02
19672;BME280;9983;51.114;13.788;2023-04-07T02:39:11;99534.13;;;1.16;82.54
19672;BME280;9983;51.114;13.788;2023-04-07T02:44:11;99533.13;;;1.06;83.52
19672;BME280;9983;51.114;13.788;2023-04-07T02:49:12;99534.78;;;1.31;82.99
19672;BME280;9983;51.114;13.788;2023-04-07T02:54:12;99529.69;;;0.93;84.36
19672;BME280;9983;51.114;13.788;2023-04-07T02:59:12;99520.56;;;1.56;81.82
19672;BME280;9983;51.114;13.788;2023-04-07T03:04:12;99517.22;;;1.76;80.50
19672;BME280;9983;51.114;13.788;2023-04-07T03:09:13;99522.28;;;1.79;79.04
19672;BME280;9983;51.114;13.788;2023-04-07T03:14:13;99512.94;;;1.97;77.73
19672;BME280;9983;51.114;13.788;2023-04-07T03:19:14;99515.41;;;1.65;81.72
19672;BME280;9983;51.114;13.788;2023-04-07T03:24:15;99509.91;;;2.13;77.67
19672;BME280;9983;51.114;13.788;2023-04-07T03:29:15;99497.53;;;1.80;79.34
19672;BME280;9983;51.114;13.788;2023-04-07T03:34:15;99505.22;;;1.94;77.15
19672;BME280;9983;51.114;13.788;2023-04-07T03:39:16;99508.25;;;0.97;83.71
19672;BME280;9983;51.114;13.788;2023-04-07T03:44:16;99511.91;;;0.84;86.57
19672;BME280;9983;51.114;13.788;2023-04-07T03:49:16;99505.25;;;1.02;84.99
19672;BME280;9983;51.114;13.788;2023-04-07T03:54:17;99492.19;;;1.46;83.27
19672;BME280;9983;51.114;13.788;2023-04-07T03:59:17;99495.75;;;1.34;82.42
19672;BME280;9983;51.114;13.788;2023-04-07T04:04:18;99511.44;;;0.90;85.67
19672;BME280;9983;51.114;13.788;2023-04-07T04:09:18;99505.09;;;1.27;83.77
19672;BME280;9983;51.114;13.788;2023-04-07T04:14:19;99508.00;;;1.35;82.92
19672;BME280;9983;51.114;13.788;2023-04-07T04:19:20;99501.44;;;1.06;86.11
19672;BME280;9983;51.114;13.788;2023-04-07T04:24:20;99503.66;;;1.23;84.70
19672;BME280;9983;51.114;13.788;2023-04-07T04:29:20;99507.31;;;1.09;85.87
19672;BME280;9983;51.114;13.788;2023-04-07T04:34:20;99504.84;;;1.65;80.16
19672;BME280;9983;51.114;13.788;2023-04-07T04:39:21;99515.53;;;0.70;86.12
19672;BME280;9983;51.114;13.788;2023-04-07T04:44:21;99521.78;;;0.32;90.39
19672;BME280;9983;51.114;13.788;2023-04-07T04:49:21;99514.88;;;0.79;87.92
19672;BME280;9983;51.114;13.788;2023-04-07T04:54:22;99513.81;;;0.82;87.58
19672;BME280;9983;51.114;13.788;2023-04-07T04:59:22;99515.63;;;0.92;86.89
19672;BME280;9983;51.114;13.788;2023-04-07T05:04:23;99515.94;;;0.04;91.38
19672;BME280;9983;51.114;13.788;2023-04-07T05:09:23;99514.03;;;0.79;88.18
19672;BME280;9983;51.114;13.788;2023-04-07T05:14:23;99513.00;;;0.68;87.93
19672;BME280;9983;51.114;13.788;2023-04-07T05:19:23;99507.59;;;0.46;89.29
19672;BME280;9983;51.114;13.788;2023-04-07T05:24:27;99518.91;;;0.72;88.46
19672;BME280;9983;51.114;13.788;2023-04-07T05:29:27;99511.91;;;0.84;87.19
19672;BME280;9983;51.114;13.788;2023-04-07T05:34:27;99514.56;;;0.84;88.39
19672;BME280;9983;51.114;13.788;2023-04-07T05:39:28;99504.03;;;0.95;87.07
19672;BME280;9983;51.114;13.788;2023-04-07T05:44:28;99500.63;;;1.63;85.31
19672;BME280;9983;51.114;13.788;2023-04-07T05:49:28;99509.16;;;1.77;83.67
19672;BME280;9983;51.114;13.788;2023-04-07T05:54:28;99504.00;;;1.65;85.87
19672;BME280;9983;51.114;13.788;2023-04-07T05:59:29;99496.34;;;1.95;84.34
19672;BME280;9983;51.114;13.788;2023-04-07T06:04:29;99504.50;;;2.14;83.64
19672;BME280;9983;51.114;13.788;2023-04-07T06:09:29;99508.09;;;2.47;82.67
19672;BME280;9983;51.114;13.788;2023-04-07T06:14:30;99502.72;;;2.69;82.97
19672;BME280;9983;51.114;13.788;2023-04-07T06:19:31;99504.59;;;3.00;81.36
19672;BME280;9983;51.114;13.788;2023-04-07T06:24:31;99500.78;;;3.35;77.34
19672;BME280;9983;51.114;13.788;2023-04-07T06:29:32;99491.56;;;3.50;79.24
19672;BME280;9983;51.114;13.788;2023-04-07T06:34:32;99492.31;;;4.13;77.10
19672;BME280;9983;51.114;13.788;2023-04-07T06:39:32;99489.66;;;4.63;73.89
19672;BME280;9983;51.114;13.788;2023-04-07T06:44:32;99490.25;;;4.76;74.97
19672;BME280;9983;51.114;13.788;2023-04-07T06:49:33;99478.09;;;5.21;69.99
19672;BME280;9983;51.114;13.788;2023-04-07T06:54:33;99484.06;;;5.62;65.48
19672;BME280;9983;51.114;13.788;2023-04-07T06:59:33;99481.72;;;6.05;67.15
19672;BME280;9983;51.114;13.788;2023-04-07T07:04:34;99483.94;;;6.47;62.23
19672;BME280;9983;51.114;13.788;2023-04-07T07:09:34;99487.28;;;6.76;63.04
19672;BME280;9983;51.114;13.788;2023-04-07T07:14:34;99482.69;;;6.86;59.80
19672;BME280;9983;51.114;13.788;2023-04-07T07:19:35;99480.28;;;7.11;59.36
19672;BME280;9983;51.114;13.788;2023-04-07T07:24:36;99485.16;;;7.33;64.50
19672;BME280;9983;51.114;13.788;2023-04-07T07:29:36;99488.81;;;7.76;60.90
19672;BME280;9983;51.114;13.788;2023-04-07T07:34:36;99500.06;;;8.21;56.88
19672;BME280;9983;51.114;13.788;2023-04-07T07:39:37;99500.63;;;8.59;51.25
19672;BME280;9983;51.114;13.788;2023-04-07T07:44:37;99510.09;;;8.95;47.81
19672;BME280;9983;51.114;13.788;2023-04-07T07:49:37;99511.13;;;9.19;47.86
19672;BME280;9983;51.114;13.788;2023-04-07T07:54:38;99516.13;;;9.13;48.55
19672;BME280;9983;51.114;13.788;2023-04-07T07:59:38;99516.81;;;9.24;49.17
19672;BME280;9983;51.114;13.788;2023-04-07T08:04:42;99516.84;;;9.56;47.78
19672;BME280;9983;51.114;13.788;2023-04-07T08:09:42;99523.19;;;9.63;47.87
19672;BME280;9983;51.114;13.788;2023-04-07T08:14:42;99515.81;;;9.81;47.26
19672;BME280;9983;51.114;13.788;2023-04-07T08:19:42;99517.75;;;10.44;45.76
19672;BME280;9983;51.114;13.788;2023-04-07T08:24:43;99527.66;;;10.27;45.54
19672;BME280;9983;51.114;13.788;2023-04-07T08:29:43;99516.41;;;10.40;44.07
19672;BME280;9983;51.114;13.788;2023-04-07T08:34:43;99517.44;;;10.31;43.30
19672;BME280;9983;51.114;13.788;2023-04-07T08:39:43;99527.28;;;10.86;43.64
19672;BME280;9983;51.114;13.788;2023-04-07T08:44:46;99529.81;;;11.10;42.76
19672;BME280;9983;51.114;13.788;2023-04-07T08:49:51;99530.44;;;11.20;40.86
19672;BME280;9983;51.114;13.788;2023-04-07T08:54:52;99521.00;;;11.47;41.38
19672;BME280;9983;51.114;13.788;2023-04-07T08:59:52;99522.91;;;11.38;40.99
19672;BME280;9983;51.114;13.788;2023-04-07T09:04:53;99517.44;;;11.55;39.57
19672;BME280;9983;51.114;13.788;2023-04-07T09:09:54;99513.16;;;11.46;40.07
19672;BME280;9983;51.114;13.788;2023-04-07T09:14:55;99514.44;;;11.95;40.52
19672;BME280;9983;51.114;13.788;2023-04-07T09:19:56;99516.22;;;11.80;38.39
19672;BME280;9983;51.114;13.788;2023-04-07T09:25:11;99513.25;;;12.27;37.28
19672;BME280;9983;51.114;13.788;2023-04-07T09:30:13;99517.25;;;12.46;38.50
19672;BME280;9983;51.114;13.788;2023-04-07T09:35:14;99510.00;;;12.61;37.10
19672;BME280;9983;51.114;13.788;2023-04-07T09:40:24;99509.94;;;12.90;35.30
19672;BME280;9983;51.114;13.788;2023-04-07T09:45:30;99507.41;;;12.53;36.68
19672;BME280;9983;51.114;13.788;2023-04-07T09:50:39;99496.91;;;12.73;37.73
19672;BME280;9983;51.114;13.788;2023-04-07T09:55:40;99498.88;;;12.35;36.38
19672;BME280;9983;51.114;13.788;2023-04-07T10:00:41;99503.13;;;12.59;36.92
19672;BME280;9983;51.114;13.788;2023-04-07T10:05:43;99493.59;;;12.41;38.49
19672;BME280;9983;51.114;13.788;2023-04-07T10:10:43;99496.78;;;12.96;36.82
19672;BME280;9983;51.114;13.788;2023-04-07T10:15:44;99505.31;;;12.84;36.07
19672;BME280;9983;51.114;13.788;2023-04-07T10:20:47;99500.72;;;12.49;35.52
19672;BME280;9983;51.114;13.788;2023-04-07T10:25:50;99498.13;;;12.41;37.27
19672;BME280;9983;51.114;13.788;2023-04-07T10:30:52;99495.75;;;12.46;37.44
19672;BME280;9983;51.114;13.788;2023-04-07T10:36:03;99498.84;;;12.64;36.46
19672;BME280;9983;51.114;13.788;2023-04-07T10:41:33;99498.16;;;12.11;39.51
19672;BME280;9983;51.114;13.788;2023-04-07T10:51:43;99498.34;;;12.54;36.27
19672;BME280;9983;51.114;13.788;2023-04-07T11:07:12;99484.81;;;13.83;34.65
19672;BME280;9983;51.114;13.788;2023-04-07T11:12:22;99489.38;;;14.38;34.20
19672;BME280;9983;51.114;13.788;2023-04-07T11:17:23;99494.06;;;14.02;34.27
19672;BME280;9983;51.114;13.788;2023-04-07T11:22:23;99480.97;;;13.99;34.78
19672;BME280;9983;51.114;13.788;2023-04-07T11:27:25;99489.16;;;14.12;34.47
19672;BME280;9983;51.114;13.788;2023-04-07T11:32:26;99481.31;;;14.99;32.18
19672;BME280;9983;51.114;13.788;2023-04-07T11:37:28;99486.19;;;14.63;33.31
19672;BME280;9983;51.114;13.788;2023-04-07T11:42:38;99484.03;;;14.52;33.58
19672;BME280;9983;51.114;13.788;2023-04-07T11:47:39;99478.56;;;15.73;33.36
19672;BME280;9983;51.114;13.788;2023-04-07T11:52:43;99476.00;;;16.31;30.61
19672;BME280;9983;51.114;13.788;2023-04-07T11:57:44;99490.34;;;16.25;31.67
19672;BME280;9983;51.114;13.788;2023-04-07T12:02:45;99478.50;;;16.26;31.22
19672;BME280;9983;51.114;13.788;2023-04-07T12:07:52;99469.41;;;15.68;32.06
19672;BME280;9983;51.114;13.788;2023-04-07T12:12:53;99467.31;;;15.76;32.65
19672;BME280;9983;51.114;13.788;2023-04-07T12:17:53;99466.03;;;15.33;32.48
19672;BME280;9983;51.114;13.788;2023-04-07T12:22:54;99469.28;;;14.95;33.06
19672;BME280;9983;51.114;13.788;2023-04-07T12:27:55;99469.28;;;15.02;34.09
19672;BME280;9983;51.114;13.788;2023-04-07T12:32:55;99463.94;;;15.22;33.37
19672;BME280;9983;51.114;13.788;2023-04-07T12:37:55;99474.59;;;14.82;32.56
19672;BME280;9983;51.114;13.788;2023-04-07T12:42:55;99459.59;;;14.60;34.95
19672;BME280;9983;51.114;13.788;2023-04-07T12:47:57;99462.72;;;15.31;32.52
19672;BME280;9983;51.114;13.788;2023-04-07T12:52:58;99474.56;;;14.69;33.29
19672;BME280;9983;51.114;13.788;2023-04-07T12:57:59;99471.69;;;14.70;32.12
19672;BME280;9983;51.114;13.788;2023-04-07T13:02:59;99479.69;;;14.57;33.89
19672;BME280;9983;51.114;13.788;2023-04-07T13:07:59;99466.28;;;14.77;34.69
19672;BME280;9983;51.114;13.788;2023-04-07T13:13:00;99470.13;;;15.15;33.71
19672;BME280;9983;51.114;13.788;2023-04-07T13:18:00;99466.84;;;15.13;33.23
19672;BME280;9983;51.114;13.788;2023-04-07T13:23:00;99461.63;;;15.05;33.72
19672;BME280;9983;51.114;13.788;2023-04-07T13:28:01;99465.91;;;14.80;34.53
19672;BME280;9983;51.114;13.788;2023-04-07T13:33:01;99457.75;;;15.93;34.03
19672;BME280;9983;51.114;13.788;2023-04-07T13:38:02;99463.13;;;15.28;35.75
19672;BME280;9983;51.114;13.788;2023-04-07T13:43:02;99471.84;;;15.30;33.96
19672;BME280;9983;51.114;13.788;2023-04-07T13:48:03;99461.44;;;15.27;33.66
19672;BME280;9983;51.114;13.788;2023-04-07T13:53:03;99467.22;;;14.97;34.64
19672;BME280;9983;51.114;13.788;2023-04-07T13:58:03;99458.78;;;14.66;35.07
19672;BME280;9983;51.114;13.788;2023-04-07T14:03:03;99441.50;;;15.34;34.01
19672;BME280;9983;51.114;13.788;2023-04-07T14:08:04;99449.88;;;15.79;32.65
19672;BME280;9983;51.114;13.788;2023-04-07T14:13:04;99451.78;;;16.56;33.27
19672;BME280;9983;51.114;13.788;2023-04-07T14:18:05;99455.91;;;16.72;32.13
19672;BME280;9983;51.114;13.788;2023-04-07T14:23:05;99446.69;;;16.86;32.09
19672;BME280;9983;51.114;13.788;2023-04-07T14:28:06;99446.50;;;16.10;32.17
19672;BME280;9983;51.114;13.788;2023-04-07T14:33:07;99443.66;;;17.07;31.08
19672;BME280;9983;51.114;13.788;2023-04-07T14:38:07;99443.00;;;16.74;31.61
19672;BME280;9983;51.114;13.788;2023-04-07T14:43:07;99449.44;;;15.75;32.67
19672;BME280;9983;51.114;13.788;2023-04-07T14:48:09;99445.88;;;14.55;34.51
19672;BME280;9983;51.114;13.788;2023-04-07T14:53:10;99453.19;;;14.74;34.55
19672;BME280;9983;51.114;13.788;2023-04-07T14:58:10;99453.88;;;14.07;36.00
19672;BME280;9983;51.114;13.788;2023-04-07T15:03:10;99459.34;;;13.64;36.13
19672;BME280;9983;51.114;13.788;2023-04-07T15:08:11;99464.28;;;13.82;35.85
19672;BME280;9983;51.114;13.788;2023-04-07T15:13:11;99461.56;;;13.33;36.76
19672;BME280;9983;51.114;13.788;2023-04-07T15:18:11;99467.09;;;13.46;37.31
19672;BME280;9983;51.114;13.788;2023-04-07T15:23:12;99478.72;;;13.11;38.31
19672;BME280;9983;51.114;13.788;2023-04-07T15:28:13;99469.78;;;11.94;40.67
19672;BME280;9983;51.114;13.788;2023-04-07T15:33:14;99472.84;;;12.35;40.85
19672;BME280;9983;51.114;13.788;2023-04-07T15:38:14;99469.69;;;12.17;41.53
19672;BME280;9983;51.114;13.788;2023-04-07T15:43:15;99471.84;;;12.22;42.48
19672;BME280;9983;51.114;13.788;2023-04-07T15:48:16;99465.84;;;11.82;44.45
19672;BME280;9983;51.114;13.788;2023-04-07T15:53:16;99475.72;;;12.04;43.70
19672;BME280;9983;51.114;13.788;2023-04-07T15:58:17;99477.34;;;12.05;44.28
19672;BME280;9983;51.114;13.788;2023-04-07T16:03:17;99486.66;;;11.43;46.11
19672;BME280;9983;51.114;13.788;2023-04-07T16:08:17;99484.81;;;11.20;46.83
19672;BME280;9983;51.114;13.788;2023-04-07T16:13:17;99488.81;;;11.24;46.93
19672;BME280;9983;51.114;13.788;2023-04-07T16:18:18;99505.72;;;11.02;46.48
19672;BME280;9983;51.114;13.788;2023-04-07T16:23:18;99504.19;;;11.08;45.61
19672;BME280;9983;51.114;13.788;2023-04-07T16:28:18;99501.50;;;10.77;46.95
19672;BME280;9983;51.114;13.788;2023-04-07T16:33:18;99505.41;;;10.66;46.67
19672;BME280;9983;51.114;13.788;2023-04-07T16:38:19;99509.41;;;11.01;46.26
19672;BME280;9983;51.114;13.788;2023-04-07T16:43:19;99515.34;;;10.49;46.61
19672;BME280;9983;51.114;13.788;2023-04-07T16:48:19;99520.00;;;10.63;47.22
19672;BME280;9983;51.114;13.788;2023-04-07T16:53:20;99526.41;;;10.46;48.82
19672;BME280;9983;51.114;13.788;2023-04-07T16:58:20;99528.44;;;10.52;49.14
19672;BME280;9983;51.114;13.788;2023-04-07T17:03:20;99536.56;;;10.20;51.08
19672;BME280;9983;51.114;13.788;2023-04-07T17:08:21;99547.59;;;10.25;52.07
19672;BME280;9983;51.114;13.788;2023-04-07T17:13:21;99545.63;;;9.62;54.50
19672;BME280;9983;51.114;13.788;2023-04-07T17:18:21;99561.34;;;9.73;54.53
19672;BME280;9983;51.114;13.788;2023-04-07T17:23:21;99560.19;;;9.60;55.95
19672;BME280;9983;51.114;13.788;2023-04-07T17:28:22;99563.34;;;9.71;55.74
19672;BME280;9983;51.114;13.788;2023-04-07T17:33:22;99570.72;;;9.69;55.97
19672;BME280;9983;51.114;13.788;2023-04-07T17:38:22;99570.03;;;9.67;57.62
19672;BME280;9983;51.114;13.788;2023-04-07T17:43:22;99582.22;;;9.37;59.06
19672;BME280;9983;51.114;13.788;2023-04-07T17:48:23;99591.09;;;9.46;59.14
19672;BME280;9983;51.114;13.788;2023-04-07T17:53:23;99598.13;;;9.63;59.23
19672;BME280;9983;51.114;13.788;2023-04-07T17:58:24;99592.97;;;9.54;61.02
19672;BME280;9983;51.114;13.788;2023-04-07T18:03:25;99605.13;;;9.32;63.43
19672;BME280;9983;51.114;13.788;2023-04-07T18:08:25;99606.47;;;9.36;65.96
19672;BME280;9983;51.114;13.788;2023-04-07T18:13:26;99610.38;;;8.99;69.63
19672;BME280;9983;51.114;13.788;2023-04-07T18:18:26;99617.09;;;9.03;72.09
19672;BME280;9983;51.114;13.788;2023-04-07T18:23:26;99617.81;;;8.88;73.67
19672;BME280;9983;51.114;13.788;2023-04-07T18:28:26;99629.16;;;9.16;73.62
19672;BME280;9983;51.114;13.788;2023-04-07T18:33:28;99632.19;;;8.53;78.56
19672;BME280;9983;51.114;13.788;2023-04-07T18:38:32;99633.69;;;8.55;78.96
19672;BME280;9983;51.114;13.788;2023-04-07T18:43:33;99636.31;;;8.73;80.20
19672;BME280;9983;51.114;13.788;2023-04-07T18:48:33;99646.66;;;8.24;84.17
19672;BME280;9983;51.114;13.788;2023-04-07T18:53:33;99641.72;;;8.55;85.45
19672;BME280;9983;51.114;13.788;2023-04-07T18:58:34;99650.56;;;8.56;85.21
19672;BME280;9983;51.114;13.788;2023-04-07T19:03:35;99656.84;;;8.47;88.27
19672;BME280;9983;51.114;13.788;2023-04-07T19:08:36;99653.63;;;8.61;87.41
19672;BME280;9983;51.114;13.788;2023-04-07T19:13:36;99661.53;;;8.27;90.55
19672;BME280;9983;51.114;13.788;2023-04-07T19:18:36;99659.31;;;8.22;91.00
19672;BME280;9983;51.114;13.788;2023-04-07T19:23:36;99670.34;;;7.84;94.61
19672;BME280;9983;51.114;13.788;2023-04-07T19:28:39;99673.31;;;8.16;93.12
19672;BME280;9983;51.114;13.788;2023-04-07T19:33:41;99675.16;;;7.98;93.79
19672;BME280;9983;51.114;13.788;2023-04-07T19:38:41;99668.19;;;8.05;92.36
19672;BME280;9983;51.114;13.788;2023-04-07T19:43:41;99674.91;;;7.74;94.43
19672;BME280;9983;51.114;13.788;2023-04-07T19:48:42;99660.09;;;7.61;94.66
19672;BME280;9983;51.114;13.788;2023-04-07T19:53:42;99668.59;;;7.75;94.95
19672;BME280;9983;51.114;13.788;2023-04-07T19:58:43;99666.53;;;7.69;94.73
19672;BME280;9983;51.114;13.788;2023-04-07T20:03:43;99665.16;;;8.00;93.39
19672;BME280;9983;51.114;13.788;2023-04-07T20:08:44;99665.59;;;8.13;92.75
19672;BME280;9983;51.114;13.788;2023-04-07T20:13:46;99674.78;;;7.93;94.03
19672;BME280;9983;51.114;13.788;2023-04-07T20:18:46;99675.91;;;8.08;93.26
19672;BME280;9983;51.114;13.788;2023-04-07T20:23:48;99682.03;;;8.00;94.23
19672;BME280;9983;51.114;13.788;2023-04-07T20:28:48;99681.47;;;7.97;93.33
19672;BME280;9983;51.114;13.788;2023-04-07T20:33:48;99683.47;;;7.95;94.17
19672;BME280;9983;51.114;13.788;2023-04-07T20:38:48;99673.88;;;8.02;94.40
19672;BME280;9983;51.114;13.788;2023-04-07T20:43:49;99678.59;;;7.90;95.63
19672;BME280;9983;51.114;13.788;2023-04-07T20:48:50;99684.47;;;7.76;96.45
19672;BME280;9983;51.114;13.788;2023-04-07T20:53:50;99677.44;;;7.75;96.64
19672;BME280;9983;51.114;13.788;2023-04-07T20:58:50;99676.22;;;7.70;97.73
19672;BME280;9983;51.114;13.788;2023-04-07T21:03:51;99674.75;;;7.57;98.93
19672;BME280;9983;51.114;13.788;2023-04-07T21:08:52;99677.06;;;7.52;100.00
19672;BME280;9983;51.114;13.788;2023-04-07T21:13:52;99672.56;;;7.53;100.00
19672;BME280;9983;51.114;13.788;2023-04-07T21:18:53;99666.19;;;7.36;100.00
19672;BME280;9983;51.114;13.788;2023-04-07T21:23:53;99676.88;;;7.36;100.00
19672;BME280;9983;51.114;13.788;2023-04-07T21:28:53;99667.84;;;7.37;100.00
19672;BME280;9983;51.114;13.788;2023-04-07T21:33:53;99667.94;;;7.45;100.00
19672;BME280;9983;51.114;13.788;2023-04-07T21:38:54;99668.97;;;7.44;100.00
19672;BME280;9983;51.114;13.788;2023-04-07T21:43:54;99665.53;;;7.52;100.00
19672;BME280;9983;51.114;13.788;2023-04-07T21:48:54;99670.75;;;7.26;100.00
19672;BME280;9983;51.114;13.788;2023-04-07T21:53:55;99672.72;;;7.24;100.00
19672;BME280;9983;51.114;13.788;2023-04-07T21:58:57;99666.00;;;7.20;100.00
19672;BME280;9983;51.114;13.788;2023-04-07T22:03:57;99670.09;;;7.42;100.00
19672;BME280;9983;51.114;13.788;2023-04-07T22:08:57;99670.16;;;7.32;100.00
19672;BME280;9983;51.114;13.788;2023-04-07T22:13:57;99665.09;;;7.29;100.00
19672;BME280;9983;51.114;13.788;2023-04-07T22:18:58;99666.25;;;7.27;100.00
19672;BME280;9983;51.114;13.788;2023-04-07T22:23:58;99669.34;;;7.22;100.00
19672;BME280;9983;51.114;13.788;2023-04-07T22:28:58;99667.47;;;7.32;100.00
19672;BME280;9983;51.114;13.788;2023-04-07T22:33:59;99669.06;;;7.25;100.00
19672;BME280;9983;51.114;13.788;2023-04-07T22:38:59;99661.34;;;6.95;100.00
19672;BME280;9983;51.114;13.788;2023-04-07T22:43:59;99670.88;;;6.97;100.00
19672;BME280;9983;51.114;13.788;2023-04-07T22:48:59;99659.97;;;6.91;100.00
19672;BME280;9983;51.114;13.788;2023-04-07T22:54:00;99668.00;;;7.18;100.00
19672;BME280;9983;51.114;13.788;2023-04-07T22:59:00;99669.66;;;7.19;100.00
19672;BME280;9983;51.114;13.788;2023-04-07T23:04:04;99675.84;;;7.19;100.00
19672;BME280;9983;51.114;13.788;2023-04-07T23:09:04;99670.56;;;7.10;100.00
19672;BME280;9983;51.114;13.788;2023-04-07T23:14:05;99674.22;;;7.09;100.00
19672;BME280;9983;51.114;13.788;2023-04-07T23:19:06;99673.59;;;7.15;100.00
19672;BME280;9983;51.114;13.788;2023-04-07T23:24:10;99678.03;;;6.97;100.00
19672;BME280;9983;51.114;13.788;2023-04-07T23:29:10;99664.81;;;6.77;100.00
19672;BME280;9983;51.114;13.788;2023-04-07T23:34:11;99669.06;;;6.98;100.00
19672;BME280;9983;51.114;13.788;2023-04-07T23:39:11;99670.13;;;7.05;100.00
19672;BME280;9983;51.114;13.788;2023-04-07T23:44:11;99661.34;;;6.67;100.00
19672;BME280;9983;51.114;13.788;2023-04-07T23:49:11;99665.69;;;6.96;100.00
19672;BME280;9983;51.114;13.788;2023-04-07T23:54:12;99651.28;;;6.89;100.00
19672;BME280;9983;51.114;13.788;2023-04-07T23:59:12;99659.38;;;6.97;100.00
